sensor_id;sensor_type;location;lat;lon;timestamp;P1;durP1;ratioP1;P2;durP2;ratioP2
77085;SDS011;66014;53.134;18.006;2023-07-20T00:01:29;8.40;;;4.00;;
77085;SDS011;66014;53.134;18.006;2023-07-20T00:03:58;6.00;;;3.90;;
77085;SDS011;66014;53.134;18.006;2023-07-20T00:06:27;5.40;;;3.50;;
77085;SDS011;66014;53.134;18.006;2023-07-20T00:08:56;6.50;;;4.10;;
77085;SDS011;66014;53.134;18.006;2023-07-20T00:11:25;7.70;;;3.80;;
77085;SDS011;66014;53.134;18.006;2023-07-20T00:13:55;5.70;;;4.00;;
77085;SDS011;66014;53.134;18.006;2023-07-20T00:16:21;8.70;;;4.00;;
77085;SDS011;66014;53.134;18.006;2023-07-20T00:18:48;5.50;;;3.60;;
77085;SDS011;66014;53.134;18.006;2023-07-20T00:21:14;5.50;;;3.50;;
77085;SDS011;66014;53.134;18.006;2023-07-20T00:23:41;5.00;;;3.50;;
77085;SDS011;66014;53.134;18.006;2023-07-20T00:26:07;6.10;;;3.40;;
77085;SDS011;66014;53.134;18.006;2023-07-20T00:28:32;5.50;;;3.90;;
77085;SDS011;66014;53.134;18.006;2023-07-20T00:30:59;6.00;;;3.60;;
77085;SDS011;66014;53.134;18.006;2023-07-20T00:33:26;7.20;;;3.60;;
77085;SDS011;66014;53.134;18.006;2023-07-20T00:35:52;5.70;;;3.90;;
77085;SDS011;66014;53.134;18.006;2023-07-20T00:38:18;5.30;;;3.80;;
77085;SDS011;66014;53.134;18.006;2023-07-20T00:40:44;6.20;;;4.00;;
77085;SDS011;66014;53.134;18.006;2023-07-20T00:43:10;6.80;;;4.20;;
77085;SDS011;66014;53.134;18.006;2023-07-20T00:45:38;7.40;;;4.90;;
77085;SDS011;66014;53.134;18.006;2023-07-20T00:48:04;7.20;;;4.90;;
77085;SDS011;66014;53.134;18.006;2023-07-20T00:50:32;8.00;;;4.20;;
77085;SDS011;66014;53.134;18.006;2023-07-20T00:52:59;6.00;;;3.60;;
77085;SDS011;66014;53.134;18.006;2023-07-20T00:55:29;7.60;;;3.70;;
77085;SDS011;66014;53.134;18.006;2023-07-20T00:57:58;6.90;;;3.30;;
77085;SDS011;66014;53.134;18.006;2023-07-20T01:00:34;6.00;;;3.70;;
77085;SDS011;66014;53.134;18.006;2023-07-20T01:03:06;6.10;;;3.70;;
77085;SDS011;66014;53.134;18.006;2023-07-20T01:05:54;9.20;;;3.90;;
77085;SDS011;66014;53.134;18.006;2023-07-20T01:08:36;5.10;;;3.40;;
77085;SDS011;66014;53.134;18.006;2023-07-20T01:11:16;8.70;;;3.60;;
77085;SDS011;66014;53.134;18.006;2023-07-20T01:14:13;6.70;;;3.40;;
77085;SDS011;66014;53.134;18.006;2023-07-20T01:16:40;6.50;;;4.10;;
77085;SDS011;66014;53.134;18.006;2023-07-20T01:19:06;5.50;;;3.80;;
77085;SDS011;66014;53.134;18.006;2023-07-20T01:21:44;9.50;;;3.70;;
77085;SDS011;66014;53.134;18.006;2023-07-20T01:24:26;5.60;;;3.90;;
77085;SDS011;66014;53.134;18.006;2023-07-20T01:27:00;5.90;;;3.70;;
77085;SDS011;66014;53.134;18.006;2023-07-20T01:32:15;5.70;;;3.80;;
77085;SDS011;66014;53.134;18.006;2023-07-20T01:34:55;5.80;;;3.70;;
77085;SDS011;66014;53.134;18.006;2023-07-20T01:37:23;5.90;;;3.80;;
77085;SDS011;66014;53.134;18.006;2023-07-20T01:39:53;9.00;;;4.30;;
77085;SDS011;66014;53.134;18.006;2023-07-20T01:42:23;7.70;;;4.20;;
77085;SDS011;66014;53.134;18.006;2023-07-20T01:44:51;7.10;;;4.20;;
77085;SDS011;66014;53.134;18.006;2023-07-20T01:47:20;7.70;;;3.90;;
77085;SDS011;66014;53.134;18.006;2023-07-20T01:49:46;6.50;;;4.10;;
77085;SDS011;66014;53.134;18.006;2023-07-20T01:52:12;7.40;;;4.00;;
77085;SDS011;66014;53.134;18.006;2023-07-20T01:54:39;6.70;;;3.60;;
77085;SDS011;66014;53.134;18.006;2023-07-20T01:57:04;6.90;;;3.80;;
77085;SDS011;66014;53.134;18.006;2023-07-20T01:59:30;5.90;;;3.90;;
77085;SDS011;66014;53.134;18.006;2023-07-20T02:01:56;6.70;;;3.70;;
77085;SDS011;66014;53.134;18.006;2023-07-20T02:04:22;5.30;;;3.50;;
77085;SDS011;66014;53.134;18.006;2023-07-20T02:06:48;5.90;;;3.90;;
77085;SDS011;66014;53.134;18.006;2023-07-20T02:09:13;5.30;;;3.50;;
77085;SDS011;66014;53.134;18.006;2023-07-20T02:11:39;5.90;;;3.70;;
77085;SDS011;66014;53.134;18.006;2023-07-20T02:14:05;6.20;;;3.50;;
77085;SDS011;66014;53.134;18.006;2023-07-20T02:16:31;5.20;;;3.50;;
77085;SDS011;66014;53.134;18.006;2023-07-20T02:18:57;5.30;;;3.10;;
77085;SDS011;66014;53.134;18.006;2023-07-20T02:21:24;4.90;;;3.30;;
77085;SDS011;66014;53.134;18.006;2023-07-20T02:23:49;5.50;;;3.40;;
77085;SDS011;66014;53.134;18.006;2023-07-20T02:26:16;7.20;;;3.30;;
77085;SDS011;66014;53.134;18.006;2023-07-20T02:28:41;6.70;;;3.20;;
77085;SDS011;66014;53.134;18.006;2023-07-20T02:31:07;6.10;;;3.30;;
77085;SDS011;66014;53.134;18.006;2023-07-20T02:33:36;7.40;;;3.30;;
77085;SDS011;66014;53.134;18.006;2023-07-20T02:36:03;5.60;;;3.20;;
77085;SDS011;66014;53.134;18.006;2023-07-20T02:38:29;5.00;;;3.30;;
77085;SDS011;66014;53.134;18.006;2023-07-20T02:40:54;4.10;;;2.70;;
77085;SDS011;66014;53.134;18.006;2023-07-20T02:43:20;5.30;;;3.40;;
77085;SDS011;66014;53.134;18.006;2023-07-20T02:45:46;7.10;;;4.00;;
77085;SDS011;66014;53.134;18.006;2023-07-20T02:48:12;6.10;;;3.60;;
77085;SDS011;66014;53.134;18.006;2023-07-20T02:50:38;6.00;;;3.60;;
77085;SDS011;66014;53.134;18.006;2023-07-20T02:53:05;6.20;;;3.60;;
77085;SDS011;66014;53.134;18.006;2023-07-20T02:55:30;6.20;;;3.50;;
77085;SDS011;66014;53.134;18.006;2023-07-20T02:57:59;7.00;;;4.30;;
77085;SDS011;66014;53.134;18.006;2023-07-20T03:00:25;6.10;;;3.70;;
77085;SDS011;66014;53.134;18.006;2023-07-20T03:02:51;8.00;;;4.40;;
77085;SDS011;66014;53.134;18.006;2023-07-20T03:05:24;6.70;;;3.80;;
77085;SDS011;66014;53.134;18.006;2023-07-20T03:07:54;6.40;;;4.20;;
77085;SDS011;66014;53.134;18.006;2023-07-20T03:10:21;5.90;;;3.90;;
77085;SDS011;66014;53.134;18.006;2023-07-20T03:12:47;8.30;;;4.00;;
77085;SDS011;66014;53.134;18.006;2023-07-20T03:15:12;6.20;;;3.90;;
77085;SDS011;66014;53.134;18.006;2023-07-20T03:17:38;7.40;;;4.00;;
77085;SDS011;66014;53.134;18.006;2023-07-20T03:20:04;5.80;;;3.50;;
77085;SDS011;66014;53.134;18.006;2023-07-20T03:22:34;5.50;;;3.90;;
77085;SDS011;66014;53.134;18.006;2023-07-20T03:25:00;5.30;;;3.30;;
77085;SDS011;66014;53.134;18.006;2023-07-20T03:27:27;6.20;;;3.60;;
77085;SDS011;66014;53.134;18.006;2023-07-20T03:29:54;6.60;;;3.60;;
77085;SDS011;66014;53.134;18.006;2023-07-20T03:32:20;5.50;;;3.60;;
77085;SDS011;66014;53.134;18.006;2023-07-20T03:34:46;5.50;;;3.40;;
77085;SDS011;66014;53.134;18.006;2023-07-20T03:37:12;5.30;;;3.50;;
77085;SDS011;66014;53.134;18.006;2023-07-20T03:39:38;5.30;;;3.60;;
77085;SDS011;66014;53.134;18.006;2023-07-20T03:42:04;14.10;;;7.10;;
77085;SDS011;66014;53.134;18.006;2023-07-20T03:44:32;5.50;;;3.20;;
77085;SDS011;66014;53.134;18.006;2023-07-20T03:46:58;5.30;;;3.30;;
77085;SDS011;66014;53.134;18.006;2023-07-20T03:49:23;4.60;;;3.20;;
77085;SDS011;66014;53.134;18.006;2023-07-20T03:51:49;6.90;;;3.60;;
77085;SDS011;66014;53.134;18.006;2023-07-20T03:54:15;6.10;;;3.00;;
77085;SDS011;66014;53.134;18.006;2023-07-20T03:56:41;5.10;;;2.90;;
77085;SDS011;66014;53.134;18.006;2023-07-20T03:59:07;5.40;;;3.60;;
77085;SDS011;66014;53.134;18.006;2023-07-20T04:01:33;6.40;;;3.50;;
77085;SDS011;66014;53.134;18.006;2023-07-20T04:04:07;5.40;;;2.90;;
77085;SDS011;66014;53.134;18.006;2023-07-20T04:06:33;5.40;;;2.70;;
77085;SDS011;66014;53.134;18.006;2023-07-20T04:09:00;4.60;;;2.90;;
77085;SDS011;66014;53.134;18.006;2023-07-20T04:11:25;6.10;;;3.20;;
77085;SDS011;66014;53.134;18.006;2023-07-20T04:13:51;4.00;;;2.70;;
77085;SDS011;66014;53.134;18.006;2023-07-20T04:16:17;5.60;;;3.20;;
77085;SDS011;66014;53.134;18.006;2023-07-20T04:18:45;5.70;;;2.90;;
77085;SDS011;66014;53.134;18.006;2023-07-20T04:21:11;5.50;;;3.30;;
77085;SDS011;66014;53.134;18.006;2023-07-20T04:23:37;5.20;;;3.20;;
77085;SDS011;66014;53.134;18.006;2023-07-20T04:26:03;5.10;;;3.30;;
77085;SDS011;66014;53.134;18.006;2023-07-20T04:28:28;6.30;;;3.30;;
77085;SDS011;66014;53.134;18.006;2023-07-20T04:30:54;8.80;;;3.20;;
77085;SDS011;66014;53.134;18.006;2023-07-20T04:33:20;6.70;;;2.90;;
77085;SDS011;66014;53.134;18.006;2023-07-20T04:38:22;4.80;;;3.10;;
77085;SDS011;66014;53.134;18.006;2023-07-20T04:40:48;6.30;;;3.60;;
77085;SDS011;66014;53.134;18.006;2023-07-20T04:43:15;5.60;;;2.90;;
77085;SDS011;66014;53.134;18.006;2023-07-20T04:46:40;4.40;;;2.70;;
77085;SDS011;66014;53.134;18.006;2023-07-20T04:49:06;4.70;;;3.00;;
77085;SDS011;66014;53.134;18.006;2023-07-20T04:51:31;5.10;;;2.80;;
77085;SDS011;66014;53.134;18.006;2023-07-20T04:53:57;5.20;;;2.90;;
77085;SDS011;66014;53.134;18.006;2023-07-20T04:56:24;5.50;;;2.70;;
77085;SDS011;66014;53.134;18.006;2023-07-20T04:58:50;4.90;;;2.60;;
77085;SDS011;66014;53.134;18.006;2023-07-20T05:01:16;5.70;;;3.00;;
77085;SDS011;66014;53.134;18.006;2023-07-20T05:03:43;4.40;;;2.60;;
77085;SDS011;66014;53.134;18.006;2023-07-20T05:06:09;4.60;;;2.60;;
77085;SDS011;66014;53.134;18.006;2023-07-20T05:08:34;7.20;;;2.90;;
77085;SDS011;66014;53.134;18.006;2023-07-20T05:11:00;5.10;;;2.70;;
77085;SDS011;66014;53.134;18.006;2023-07-20T05:13:26;8.00;;;2.80;;
77085;SDS011;66014;53.134;18.006;2023-07-20T05:15:52;6.90;;;2.70;;
77085;SDS011;66014;53.134;18.006;2023-07-20T05:18:19;3.40;;;2.20;;
77085;SDS011;66014;53.134;18.006;2023-07-20T05:20:46;5.40;;;2.50;;
77085;SDS011;66014;53.134;18.006;2023-07-20T05:23:13;4.30;;;2.30;;
77085;SDS011;66014;53.134;18.006;2023-07-20T05:25:39;6.80;;;1.90;;
77085;SDS011;66014;53.134;18.006;2023-07-20T05:28:05;4.00;;;2.20;;
77085;SDS011;66014;53.134;18.006;2023-07-20T05:30:32;6.60;;;2.40;;
77085;SDS011;66014;53.134;18.006;2023-07-20T05:32:57;6.80;;;2.40;;
77085;SDS011;66014;53.134;18.006;2023-07-20T05:35:23;3.30;;;2.10;;
77085;SDS011;66014;53.134;18.006;2023-07-20T05:37:49;5.70;;;3.70;;
77085;SDS011;66014;53.134;18.006;2023-07-20T05:40:15;4.60;;;2.40;;
77085;SDS011;66014;53.134;18.006;2023-07-20T05:42:45;5.10;;;2.60;;
77085;SDS011;66014;53.134;18.006;2023-07-20T05:45:15;4.60;;;2.10;;
77085;SDS011;66014;53.134;18.006;2023-07-20T05:48:50;3.70;;;2.00;;
77085;SDS011;66014;53.134;18.006;2023-07-20T05:52:08;5.90;;;1.90;;
77085;SDS011;66014;53.134;18.006;2023-07-20T05:54:34;5.60;;;2.40;;
77085;SDS011;66014;53.134;18.006;2023-07-20T05:57:00;4.10;;;2.10;;
77085;SDS011;66014;53.134;18.006;2023-07-20T05:59:27;4.50;;;1.90;;
77085;SDS011;66014;53.134;18.006;2023-07-20T06:01:55;5.90;;;2.40;;
77085;SDS011;66014;53.134;18.006;2023-07-20T06:04:21;4.20;;;1.80;;
77085;SDS011;66014;53.134;18.006;2023-07-20T06:06:47;4.00;;;2.20;;
77085;SDS011;66014;53.134;18.006;2023-07-20T06:09:13;3.30;;;2.00;;
77085;SDS011;66014;53.134;18.006;2023-07-20T06:11:39;4.00;;;1.50;;
77085;SDS011;66014;53.134;18.006;2023-07-20T06:14:06;3.50;;;1.60;;
77085;SDS011;66014;53.134;18.006;2023-07-20T06:16:32;3.30;;;1.80;;
77085;SDS011;66014;53.134;18.006;2023-07-20T06:19:04;3.10;;;1.80;;
77085;SDS011;66014;53.134;18.006;2023-07-20T06:21:41;2.80;;;1.50;;
77085;SDS011;66014;53.134;18.006;2023-07-20T06:24:13;3.10;;;1.40;;
77085;SDS011;66014;53.134;18.006;2023-07-20T06:26:39;4.10;;;2.10;;
77085;SDS011;66014;53.134;18.006;2023-07-20T06:29:05;3.40;;;1.70;;
77085;SDS011;66014;53.134;18.006;2023-07-20T06:31:37;2.40;;;1.50;;
77085;SDS011;66014;53.134;18.006;2023-07-20T06:34:03;4.30;;;1.50;;
77085;SDS011;66014;53.134;18.006;2023-07-20T06:36:29;4.40;;;1.80;;
77085;SDS011;66014;53.134;18.006;2023-07-20T06:38:55;4.60;;;1.70;;
77085;SDS011;66014;53.134;18.006;2023-07-20T06:41:21;3.60;;;1.70;;
77085;SDS011;66014;53.134;18.006;2023-07-20T06:43:47;4.20;;;1.90;;
77085;SDS011;66014;53.134;18.006;2023-07-20T06:46:14;3.90;;;1.90;;
77085;SDS011;66014;53.134;18.006;2023-07-20T06:48:40;4.40;;;1.80;;
77085;SDS011;66014;53.134;18.006;2023-07-20T06:51:06;3.80;;;1.40;;
77085;SDS011;66014;53.134;18.006;2023-07-20T06:53:32;3.10;;;1.50;;
77085;SDS011;66014;53.134;18.006;2023-07-20T06:55:58;3.80;;;1.50;;
77085;SDS011;66014;53.134;18.006;2023-07-20T06:58:24;4.60;;;1.30;;
77085;SDS011;66014;53.134;18.006;2023-07-20T07:00:51;4.80;;;1.30;;
77085;SDS011;66014;53.134;18.006;2023-07-20T07:03:17;3.70;;;1.30;;
77085;SDS011;66014;53.134;18.006;2023-07-20T07:05:43;3.40;;;1.80;;
77085;SDS011;66014;53.134;18.006;2023-07-20T07:08:12;4.20;;;1.30;;
77085;SDS011;66014;53.134;18.006;2023-07-20T07:10:38;2.00;;;1.20;;
77085;SDS011;66014;53.134;18.006;2023-07-20T07:13:04;3.90;;;1.20;;
77085;SDS011;66014;53.134;18.006;2023-07-20T07:15:30;3.60;;;1.30;;
77085;SDS011;66014;53.134;18.006;2023-07-20T07:17:56;3.40;;;1.20;;
77085;SDS011;66014;53.134;18.006;2023-07-20T07:20:22;2.10;;;1.10;;
77085;SDS011;66014;53.134;18.006;2023-07-20T07:22:49;2.90;;;1.20;;
77085;SDS011;66014;53.134;18.006;2023-07-20T07:25:20;7.20;;;1.90;;
77085;SDS011;66014;53.134;18.006;2023-07-20T07:27:46;3.00;;;1.20;;
77085;SDS011;66014;53.134;18.006;2023-07-20T07:30:12;3.30;;;1.00;;
77085;SDS011;66014;53.134;18.006;2023-07-20T07:32:38;3.30;;;1.10;;
77085;SDS011;66014;53.134;18.006;2023-07-20T07:35:04;2.80;;;1.10;;
77085;SDS011;66014;53.134;18.006;2023-07-20T07:37:30;4.30;;;1.30;;
77085;SDS011;66014;53.134;18.006;2023-07-20T07:39:56;3.80;;;1.30;;
77085;SDS011;66014;53.134;18.006;2023-07-20T07:42:31;3.80;;;1.10;;
77085;SDS011;66014;53.134;18.006;2023-07-20T07:45:00;2.60;;;1.10;;
77085;SDS011;66014;53.134;18.006;2023-07-20T07:47:26;2.30;;;0.70;;
77085;SDS011;66014;53.134;18.006;2023-07-20T07:49:52;2.30;;;0.80;;
77085;SDS011;66014;53.134;18.006;2023-07-20T07:52:18;5.50;;;1.20;;
77085;SDS011;66014;53.134;18.006;2023-07-20T07:54:44;2.60;;;1.00;;
77085;SDS011;66014;53.134;18.006;2023-07-20T07:57:09;2.30;;;0.90;;
77085;SDS011;66014;53.134;18.006;2023-07-20T07:59:35;3.00;;;1.00;;
77085;SDS011;66014;53.134;18.006;2023-07-20T08:02:06;1.90;;;0.70;;
77085;SDS011;66014;53.134;18.006;2023-07-20T08:04:32;2.60;;;0.90;;
77085;SDS011;66014;53.134;18.006;2023-07-20T08:06:59;1.90;;;0.70;;
77085;SDS011;66014;53.134;18.006;2023-07-20T08:09:25;2.40;;;1.00;;
77085;SDS011;66014;53.134;18.006;2023-07-20T08:11:51;1.50;;;0.80;;
77085;SDS011;66014;53.134;18.006;2023-07-20T08:14:17;4.30;;;1.20;;
77085;SDS011;66014;53.134;18.006;2023-07-20T08:16:43;2.20;;;0.90;;
77085;SDS011;66014;53.134;18.006;2023-07-20T08:19:10;4.70;;;0.90;;
77085;SDS011;66014;53.134;18.006;2023-07-20T08:21:36;2.90;;;0.90;;
77085;SDS011;66014;53.134;18.006;2023-07-20T08:24:04;3.30;;;0.90;;
77085;SDS011;66014;53.134;18.006;2023-07-20T08:26:31;2.10;;;0.90;;
77085;SDS011;66014;53.134;18.006;2023-07-20T08:28:58;2.00;;;0.70;;
77085;SDS011;66014;53.134;18.006;2023-07-20T08:31:24;2.80;;;0.90;;
77085;SDS011;66014;53.134;18.006;2023-07-20T08:33:50;3.60;;;1.00;;
77085;SDS011;66014;53.134;18.006;2023-07-20T08:36:16;2.30;;;0.90;;
77085;SDS011;66014;53.134;18.006;2023-07-20T08:38:42;4.40;;;1.00;;
77085;SDS011;66014;53.134;18.006;2023-07-20T08:41:08;2.40;;;1.10;;
77085;SDS011;66014;53.134;18.006;2023-07-20T08:43:36;2.20;;;0.90;;
77085;SDS011;66014;53.134;18.006;2023-07-20T08:46:08;1.30;;;0.70;;
77085;SDS011;66014;53.134;18.006;2023-07-20T08:48:36;3.50;;;0.90;;
77085;SDS011;66014;53.134;18.006;2023-07-20T08:51:10;2.10;;;0.70;;
77085;SDS011;66014;53.134;18.006;2023-07-20T08:53:38;1.50;;;0.80;;
77085;SDS011;66014;53.134;18.006;2023-07-20T08:56:04;3.70;;;1.00;;
77085;SDS011;66014;53.134;18.006;2023-07-20T08:58:37;2.60;;;0.80;;
77085;SDS011;66014;53.134;18.006;2023-07-20T09:01:05;2.20;;;0.90;;
77085;SDS011;66014;53.134;18.006;2023-07-20T09:03:32;2.10;;;1.10;;
77085;SDS011;66014;53.134;18.006;2023-07-20T09:05:58;2.80;;;0.80;;
77085;SDS011;66014;53.134;18.006;2023-07-20T09:08:24;2.80;;;1.00;;
77085;SDS011;66014;53.134;18.006;2023-07-20T09:10:50;2.10;;;0.80;;
77085;SDS011;66014;53.134;18.006;2023-07-20T09:13:16;2.70;;;0.90;;
77085;SDS011;66014;53.134;18.006;2023-07-20T09:15:53;2.20;;;0.80;;
77085;SDS011;66014;53.134;18.006;2023-07-20T09:18:31;3.10;;;0.80;;
77085;SDS011;66014;53.134;18.006;2023-07-20T09:21:06;4.00;;;0.90;;
77085;SDS011;66014;53.134;18.006;2023-07-20T09:23:35;2.90;;;1.10;;
77085;SDS011;66014;53.134;18.006;2023-07-20T09:26:10;2.30;;;0.80;;
77085;SDS011;66014;53.134;18.006;2023-07-20T09:28:57;2.50;;;0.70;;
77085;SDS011;66014;53.134;18.006;2023-07-20T09:31:23;1.50;;;0.50;;
77085;SDS011;66014;53.134;18.006;2023-07-20T09:33:49;2.70;;;1.00;;
77085;SDS011;66014;53.134;18.006;2023-07-20T09:36:18;1.50;;;0.70;;
77085;SDS011;66014;53.134;18.006;2023-07-20T09:38:44;1.80;;;0.70;;
77085;SDS011;66014;53.134;18.006;2023-07-20T09:41:14;1.30;;;0.70;;
77085;SDS011;66014;53.134;18.006;2023-07-20T09:43:41;1.20;;;0.60;;
77085;SDS011;66014;53.134;18.006;2023-07-20T09:46:07;2.30;;;0.60;;
77085;SDS011;66014;53.134;18.006;2023-07-20T09:48:34;1.00;;;0.50;;
77085;SDS011;66014;53.134;18.006;2023-07-20T09:51:00;1.70;;;0.70;;
77085;SDS011;66014;53.134;18.006;2023-07-20T09:53:27;2.70;;;0.60;;
77085;SDS011;66014;53.134;18.006;2023-07-20T09:55:57;1.40;;;0.70;;
77085;SDS011;66014;53.134;18.006;2023-07-20T09:58:25;1.80;;;0.70;;
77085;SDS011;66014;53.134;18.006;2023-07-20T10:00:54;1.90;;;0.70;;
77085;SDS011;66014;53.134;18.006;2023-07-20T10:03:25;2.80;;;0.80;;
77085;SDS011;66014;53.134;18.006;2023-07-20T10:05:56;1.10;;;0.70;;
77085;SDS011;66014;53.134;18.006;2023-07-20T10:08:25;2.00;;;0.50;;
77085;SDS011;66014;53.134;18.006;2023-07-20T10:10:54;2.60;;;1.00;;
77085;SDS011;66014;53.134;18.006;2023-07-20T10:13:25;2.10;;;0.50;;
77085;SDS011;66014;53.134;18.006;2023-07-20T10:15:58;2.80;;;0.90;;
77085;SDS011;66014;53.134;18.006;2023-07-20T10:18:29;3.90;;;0.70;;
77085;SDS011;66014;53.134;18.006;2023-07-20T10:21:03;1.70;;;0.60;;
77085;SDS011;66014;53.134;18.006;2023-07-20T10:23:33;1.70;;;0.50;;
77085;SDS011;66014;53.134;18.006;2023-07-20T10:26:03;1.90;;;0.70;;
77085;SDS011;66014;53.134;18.006;2023-07-20T10:28:29;3.00;;;0.80;;
77085;SDS011;66014;53.134;18.006;2023-07-20T10:31:10;1.50;;;0.60;;
77085;SDS011;66014;53.134;18.006;2023-07-20T10:33:44;1.40;;;0.60;;
77085;SDS011;66014;53.134;18.006;2023-07-20T10:36:43;3.00;;;0.70;;
77085;SDS011;66014;53.134;18.006;2023-07-20T10:39:33;1.70;;;0.70;;
77085;SDS011;66014;53.134;18.006;2023-07-20T10:42:09;1.00;;;0.50;;
77085;SDS011;66014;53.134;18.006;2023-07-20T10:44:39;2.10;;;0.70;;
77085;SDS011;66014;53.134;18.006;2023-07-20T10:47:09;1.40;;;0.80;;
77085;SDS011;66014;53.134;18.006;2023-07-20T10:52:26;2.00;;;0.70;;
77085;SDS011;66014;53.134;18.006;2023-07-20T10:55:10;3.10;;;0.80;;
77085;SDS011;66014;53.134;18.006;2023-07-20T10:57:59;1.90;;;0.70;;
77085;SDS011;66014;53.134;18.006;2023-07-20T11:03:26;1.40;;;0.50;;
77085;SDS011;66014;53.134;18.006;2023-07-20T11:05:54;1.20;;;0.50;;
77085;SDS011;66014;53.134;18.006;2023-07-20T11:11:51;2.60;;;1.00;;
77085;SDS011;66014;53.134;18.006;2023-07-20T11:14:05;3.70;;;0.80;;
77085;SDS011;66014;53.134;18.006;2023-07-20T11:19:03;1.10;;;0.60;;
77085;SDS011;66014;53.134;18.006;2023-07-20T11:21:36;2.20;;;0.90;;
77085;SDS011;66014;53.134;18.006;2023-07-20T11:24:06;1.70;;;0.80;;
77085;SDS011;66014;53.134;18.006;2023-07-20T11:26:39;2.70;;;0.90;;
77085;SDS011;66014;53.134;18.006;2023-07-20T11:29:12;2.60;;;0.80;;
77085;SDS011;66014;53.134;18.006;2023-07-20T11:31:39;2.70;;;0.80;;
77085;SDS011;66014;53.134;18.006;2023-07-20T11:34:13;2.10;;;0.80;;
77085;SDS011;66014;53.134;18.006;2023-07-20T11:36:41;2.10;;;0.70;;
77085;SDS011;66014;53.134;18.006;2023-07-20T11:39:10;2.50;;;0.70;;
77085;SDS011;66014;53.134;18.006;2023-07-20T11:41:37;1.80;;;0.70;;
77085;SDS011;66014;53.134;18.006;2023-07-20T11:44:04;3.00;;;0.90;;
77085;SDS011;66014;53.134;18.006;2023-07-20T11:46:32;4.80;;;1.30;;
77085;SDS011;66014;53.134;18.006;2023-07-20T11:48:58;6.50;;;1.20;;
77085;SDS011;66014;53.134;18.006;2023-07-20T11:51:26;7.70;;;1.50;;
77085;SDS011;66014;53.134;18.006;2023-07-20T11:53:53;5.70;;;1.90;;
77085;SDS011;66014;53.134;18.006;2023-07-20T11:56:20;4.70;;;1.40;;
77085;SDS011;66014;53.134;18.006;2023-07-20T11:58:46;6.30;;;1.00;;
77085;SDS011;66014;53.134;18.006;2023-07-20T12:01:14;2.90;;;1.10;;
77085;SDS011;66014;53.134;18.006;2023-07-20T12:03:43;3.90;;;1.30;;
77085;SDS011;66014;53.134;18.006;2023-07-20T12:06:10;4.80;;;1.30;;
77085;SDS011;66014;53.134;18.006;2023-07-20T12:08:42;6.50;;;1.40;;
77085;SDS011;66014;53.134;18.006;2023-07-20T12:11:09;5.20;;;1.10;;
77085;SDS011;66014;53.134;18.006;2023-07-20T12:13:40;4.30;;;1.60;;
77085;SDS011;66014;53.134;18.006;2023-07-20T12:16:17;2.20;;;1.00;;
77085;SDS011;66014;53.134;18.006;2023-07-20T12:18:43;4.30;;;1.10;;
77085;SDS011;66014;53.134;18.006;2023-07-20T12:21:09;4.60;;;1.20;;
77085;SDS011;66014;53.134;18.006;2023-07-20T12:23:37;10.20;;;2.60;;
77085;SDS011;66014;53.134;18.006;2023-07-20T12:26:08;3.60;;;1.20;;
77085;SDS011;66014;53.134;18.006;2023-07-20T12:28:39;3.30;;;1.30;;
77085;SDS011;66014;53.134;18.006;2023-07-20T12:31:07;4.90;;;1.40;;
77085;SDS011;66014;53.134;18.006;2023-07-20T12:33:34;3.80;;;1.80;;
77085;SDS011;66014;53.134;18.006;2023-07-20T12:36:02;5.00;;;2.20;;
77085;SDS011;66014;53.134;18.006;2023-07-20T12:38:28;2.60;;;1.40;;
77085;SDS011;66014;53.134;18.006;2023-07-20T12:40:56;2.80;;;1.30;;
77085;SDS011;66014;53.134;18.006;2023-07-20T12:43:24;3.20;;;1.30;;
77085;SDS011;66014;53.134;18.006;2023-07-20T12:45:50;3.60;;;1.20;;
77085;SDS011;66014;53.134;18.006;2023-07-20T12:48:17;3.60;;;1.60;;
77085;SDS011;66014;53.134;18.006;2023-07-20T12:50:44;1.90;;;0.90;;
77085;SDS011;66014;53.134;18.006;2023-07-20T12:53:10;4.20;;;1.00;;
77085;SDS011;66014;53.134;18.006;2023-07-20T12:55:36;4.20;;;1.20;;
77085;SDS011;66014;53.134;18.006;2023-07-20T12:58:04;5.40;;;1.40;;
77085;SDS011;66014;53.134;18.006;2023-07-20T13:00:30;4.40;;;1.50;;
77085;SDS011;66014;53.134;18.006;2023-07-20T13:02:56;4.00;;;2.10;;
77085;SDS011;66014;53.134;18.006;2023-07-20T13:05:22;2.60;;;1.50;;
77085;SDS011;66014;53.134;18.006;2023-07-20T13:07:47;2.40;;;1.20;;
77085;SDS011;66014;53.134;18.006;2023-07-20T13:10:13;4.30;;;1.00;;
77085;SDS011;66014;53.134;18.006;2023-07-20T13:12:39;4.30;;;1.50;;
77085;SDS011;66014;53.134;18.006;2023-07-20T13:15:06;3.00;;;1.10;;
77085;SDS011;66014;53.134;18.006;2023-07-20T13:17:34;1.20;;;0.70;;
77085;SDS011;66014;53.134;18.006;2023-07-20T13:20:01;3.00;;;1.00;;
77085;SDS011;66014;53.134;18.006;2023-07-20T13:22:30;3.40;;;1.30;;
77085;SDS011;66014;53.134;18.006;2023-07-20T13:24:56;2.40;;;1.00;;
77085;SDS011;66014;53.134;18.006;2023-07-20T13:27:22;2.20;;;0.90;;
77085;SDS011;66014;53.134;18.006;2023-07-20T13:29:48;2.70;;;1.10;;
77085;SDS011;66014;53.134;18.006;2023-07-20T13:32:15;3.00;;;1.00;;
77085;SDS011;66014;53.134;18.006;2023-07-20T13:34:41;2.30;;;0.90;;
77085;SDS011;66014;53.134;18.006;2023-07-20T13:37:07;1.90;;;0.90;;
77085;SDS011;66014;53.134;18.006;2023-07-20T13:39:34;2.00;;;0.90;;
77085;SDS011;66014;53.134;18.006;2023-07-20T13:42:03;1.30;;;0.70;;
77085;SDS011;66014;53.134;18.006;2023-07-20T13:44:31;1.90;;;0.90;;
77085;SDS011;66014;53.134;18.006;2023-07-20T13:46:57;2.00;;;0.90;;
77085;SDS011;66014;53.134;18.006;2023-07-20T13:49:23;1.60;;;0.60;;
77085;SDS011;66014;53.134;18.006;2023-07-20T13:51:49;2.10;;;0.70;;
77085;SDS011;66014;53.134;18.006;2023-07-20T13:54:15;1.20;;;0.60;;
77085;SDS011;66014;53.134;18.006;2023-07-20T13:56:41;1.90;;;0.80;;
77085;SDS011;66014;53.134;18.006;2023-07-20T13:59:07;2.30;;;0.80;;
77085;SDS011;66014;53.134;18.006;2023-07-20T14:01:35;1.40;;;0.70;;
77085;SDS011;66014;53.134;18.006;2023-07-20T14:04:02;1.70;;;0.80;;
77085;SDS011;66014;53.134;18.006;2023-07-20T14:06:29;0.80;;;0.50;;
77085;SDS011;66014;53.134;18.006;2023-07-20T14:08:56;1.20;;;0.70;;
77085;SDS011;66014;53.134;18.006;2023-07-20T14:11:22;3.00;;;0.70;;
77085;SDS011;66014;53.134;18.006;2023-07-20T14:13:52;1.00;;;0.60;;
77085;SDS011;66014;53.134;18.006;2023-07-20T14:16:22;0.80;;;0.50;;
77085;SDS011;66014;53.134;18.006;2023-07-20T14:18:48;1.60;;;0.80;;
77085;SDS011;66014;53.134;18.006;2023-07-20T14:21:18;5.70;;;0.90;;
77085;SDS011;66014;53.134;18.006;2023-07-20T14:23:46;1.90;;;0.80;;
77085;SDS011;66014;53.134;18.006;2023-07-20T14:26:13;1.70;;;0.80;;
77085;SDS011;66014;53.134;18.006;2023-07-20T14:28:39;2.10;;;0.80;;
77085;SDS011;66014;53.134;18.006;2023-07-20T14:31:08;1.20;;;0.60;;
77085;SDS011;66014;53.134;18.006;2023-07-20T14:33:34;2.80;;;0.60;;
77085;SDS011;66014;53.134;18.006;2023-07-20T14:36:00;1.80;;;0.50;;
77085;SDS011;66014;53.134;18.006;2023-07-20T14:38:28;3.60;;;0.90;;
77085;SDS011;66014;53.134;18.006;2023-07-20T14:40:54;1.60;;;0.70;;
77085;SDS011;66014;53.134;18.006;2023-07-20T14:43:20;2.20;;;0.90;;
77085;SDS011;66014;53.134;18.006;2023-07-20T14:45:46;1.40;;;0.70;;
77085;SDS011;66014;53.134;18.006;2023-07-20T14:48:12;1.50;;;0.70;;
77085;SDS011;66014;53.134;18.006;2023-07-20T14:50:38;2.00;;;0.80;;
77085;SDS011;66014;53.134;18.006;2023-07-20T14:53:07;1.20;;;0.60;;
77085;SDS011;66014;53.134;18.006;2023-07-20T14:55:33;2.40;;;0.80;;
77085;SDS011;66014;53.134;18.006;2023-07-20T14:58:01;1.60;;;0.60;;